Nearby METAR Reports

 

KSJC - San Jose, California, USA
Distance from station: NE 14km
Updated: 15/08/2020 20:53
Partly cloudy
Partly cloudy
 Wind from varies
Wind: varies 6 km/h
Temperature: 33°C
Dew Point: 13°C
Humidity: 30%
Barometer: 1012.2 hPa
Clouds: Partly cloudy
Visibility: 16 km
Cloud details: Few Clouds 1676 m
Partly cloudy 4572 m
Partly cloudy 6096 m
2020/08/15 18:53 KSJC 151853Z VRB03KT 10SM FEW055 SCT150 SCT200 33/13 A2989 RMK AO2 SLP120 T03280128
KNUQ - Moffett Nas/Mtn, California, USA
Distance from station: N 14km
Updated: 15/08/2020 15:55
NOT Current
Clear
Clear
 Wind from calm
Wind: Calm
Temperature: 22°C
Dew Point: 17°C
Humidity: 73%
Barometer: 1011.9 hPa
Clouds: Clear
Visibility: 16 km
2020/08/15 13:55 KNUQ 151355Z AUTO 00000KT 10SM CLR 22/17 A2988 RMK AO2
 
KPAO - Palo Alto, California, USA
Distance from station: NNW 23km
Updated: 15/08/2020 20:47
Few Clouds
Few Clouds
 Wind from N
Wind: N 11 km/h
Temperature: 28°C
Heat Index: 28°C
Dew Point: 16°C
Humidity: 48%
Barometer: 1012.5 hPa
Clouds: Few Clouds
Visibility: 16 km
Cloud details: Few Clouds 3658 m
2020/08/15 18:47 KPAO 151847Z 01006KT 10SM FEW120 28/16 A2990
KRHV - San Jose/Reid, California, USA
Distance from station: ENE 19km
Updated: 15/08/2020 19:52
Partly cloudy
Partly cloudy
 Wind from NW
Wind: NW 9 km/h
Temperature: 30°C
Dew Point: 14°C
Humidity: 38%
Barometer: 1012.5 hPa
Clouds: Partly cloudy
Visibility: 16 km
Cloud details: Few Clouds 2438 m
Partly cloudy 4572 m
2020/08/15 17:52 KRHV 151752Z 31005KT 10SM FEW080 SCT150 30/14 A2990
 
KOAK - Oakland, California, USA
Distance from station: NNW 50km
Updated: 15/08/2020 20:53
Few Clouds
Few Clouds
 Wind from W
Wind: W 13 km/h
Temperature: 31°C
Dew Point: 12°C
Humidity: 31%
Barometer: 1012.5 hPa
Clouds: Few Clouds
Visibility: 16 km
Cloud details: Few Clouds 1981 m
Few Clouds 7620 m
2020/08/15 18:53 KOAK 151853Z 27007KT 10SM FEW065 FEW250 31/12 A2990 RMK AO2 SLP124 T03060117
KSQL - San Carlos Airpo, California, USA
Distance from station: NW 34km
Updated: 15/08/2020 20:47
Clear
Clear
 Wind from NNE
Wind: NNE 11 km/h
Temperature: 28°C
Heat Index: 27°C
Dew Point: 13°C
Humidity: 40%
Barometer: 1012.9 hPa
Clouds: Clear
Visibility: 16 km
2020/08/15 18:47 KSQL 151847Z 02006KT 10SM SKC 28/13 A2991
 
KSFO - San Francisco, California, USA
Distance from station: NW 49km
Updated: 15/08/2020 20:56
Few Clouds
Few Clouds
 Wind from NNE
Wind: NNE 7 km/h
Temperature: 26°C
Dew Point: 18°C
Humidity: 61%
Barometer: 1012.2 hPa
Clouds: Few Clouds
Visibility: 16 km
Cloud details: Few Clouds 6096 m
2020/08/15 18:56 KSFO 151856Z 03004KT 10SM FEW200 26/18 A2989 RMK AO2 SLP123 T02560178
KE16 - San Martin, California, USA
Distance from station: ESE 43km
Updated: 15/08/2020 20:50
Clear
Clear
 Wind from W
Wind: W 7 km/h
Temperature: 35°C
Dew Point: 12°C
Humidity: 25%
Barometer: 1012.5 hPa
Clouds: Clear
Visibility: 16 km
2020/08/15 18:50 KE16 151850Z AUTO 28004KT 10SM CLR 35/12 A2990 RMK AO2
 
KWVI - Watsonville, California, USA
Distance from station: SSE 44km
Updated: 15/08/2020 20:53
Clear
Clear
 Wind from SSW
Wind: SSW 9 km/h
Barometer: 1012.2 hPa
Clouds: Clear
Visibility: 16 km
2020/08/15 18:53 KWVI 151853Z AUTO 21005KT 10SM CLR A2989 RMK AO2 SLPNO $
KHAF - Half Moon Bay, California, USA
Distance from station: WNW 50km
Updated: 15/08/2020 20:55
Clear
Clear
 Wind from NW
Wind: NW 17 km/h
Temperature: 26°C
Dew Point: 12°C
Humidity: 42%
Barometer: 1013.2 hPa
Clouds: Clear
Visibility: 13 km
2020/08/15 18:55 KHAF 151855Z AUTO 31009KT 8SM CLR 26/12 A2992 RMK AO2
 
KHWD - Hayward, California, USA
Distance from station: N 44km
Updated: 15/08/2020 20:54
Clear
Clear
 Wind from WNW
Wind: WNW 11 km/h
Temperature: 32°C
Dew Point: 8°C
Humidity: 22%
Barometer: 1012.2 hPa
Clouds: Clear
Visibility: 16 km
2020/08/15 18:54 KHWD 151854Z 30006KT 10SM CLR 32/08 A2989 RMK AO2 SLP131 T03220083
KLVK - Livermore, California, USA
Distance from station: NNE 51km
Updated: 15/08/2020 20:53
Clear
Clear
 Wind from SSW
Wind: SSW 9 km/h
Temperature: 36°C
Dew Point: 11°C
Humidity: 22%
Barometer: 1011.9 hPa
Clouds: Clear
Visibility: 16 km
2020/08/15 18:53 KLVK 151853Z 20005KT 10SM CLR 36/11 A2988 RMK AO2 SLP113 T03560111